createdAt,value
2023-03-26T00:00:02.134Z,9.1
2023-03-26T00:01:02.527Z,9.1
2023-03-26T00:02:02.428Z,9.1
2023-03-26T00:03:01.549Z,9.2
2023-03-26T00:04:02.579Z,9.1
2023-03-26T00:05:01.173Z,9.2
2023-03-26T00:06:01.163Z,9.2
2023-03-26T00:07:01.368Z,9.2
2023-03-26T00:08:01.422Z,9.2
2023-03-26T00:09:01.159Z,9.2
2023-03-26T00:10:01.053Z,9.2
2023-03-26T00:11:01.256Z,9.1
2023-03-26T00:12:02.217Z,9.1
2023-03-26T00:13:04.134Z,9.1
2023-03-26T00:14:01.449Z,9.2
2023-03-26T00:15:01.857Z,9.2
2023-03-26T00:16:02.140Z,9.1
2023-03-26T00:17:01.251Z,9.2
2023-03-26T00:18:01.162Z,9.2
2023-03-26T00:19:01.206Z,9.1
2023-03-26T00:20:01.133Z,9.1
2023-03-26T00:21:01.434Z,9.1
2023-03-26T00:22:01.154Z,9.1
2023-03-26T00:23:01.059Z,9.1
2023-03-26T00:24:00.747Z,9.1
2023-03-26T00:25:00.437Z,9.2
2023-03-26T00:26:00.069Z,9.1
2023-03-26T00:26:59.811Z,9.1
2023-03-26T00:27:59.520Z,9.1
2023-03-26T00:29:01.100Z,9.1
2023-03-26T00:30:01.076Z,9.1
2023-03-26T00:31:01.240Z,9.1
2023-03-26T00:32:01.039Z,9.1
2023-03-26T00:33:01.077Z,9.1
2023-03-26T00:34:01.413Z,9.1
2023-03-26T00:35:01.126Z,9.1
2023-03-26T00:36:03.925Z,9.1
2023-03-26T00:37:02.508Z,9.1
2023-03-26T00:38:01.587Z,9.1
2023-03-26T00:39:01.720Z,9.1
2023-03-26T00:40:01.726Z,9.1
2023-03-26T00:41:01.729Z,9.1
2023-03-26T00:42:01.225Z,9.1
2023-03-26T00:43:01.159Z,9.1
2023-03-26T00:44:01.435Z,9.1
2023-03-26T00:45:01.457Z,9.1
2023-03-26T00:46:01.147Z,9.1
2023-03-26T00:47:01.096Z,9.1
2023-03-26T00:48:02.758Z,9.1
2023-03-26T00:49:01.112Z,9.1
2023-03-26T00:50:01.111Z,9.1
2023-03-26T00:51:01.186Z,9.1
2023-03-26T00:52:01.506Z,9.1
2023-03-26T00:53:01.288Z,9.1
2023-03-26T00:54:01.146Z,9.1
2023-03-26T00:55:01.036Z,9.1
2023-03-26T00:56:01.064Z,9
2023-03-26T00:57:01.064Z,9.1
2023-03-26T00:58:01.060Z,9
2023-03-26T00:59:01.031Z,9.1
2023-03-26T01:00:01.082Z,9.1
2023-03-26T01:01:01.498Z,9
2023-03-26T01:02:01.178Z,9
2023-03-26T01:03:01.213Z,9
2023-03-26T01:05:01.520Z,9
2023-03-26T01:06:02.535Z,9.1
2023-03-26T01:07:01.121Z,9.1
2023-03-26T01:08:01.119Z,9
2023-03-26T01:09:01.122Z,9.1
2023-03-26T01:10:01.135Z,9.1
2023-03-26T01:11:01.042Z,9
2023-03-26T01:12:01.075Z,9
2023-03-26T01:13:01.739Z,9
2023-03-26T01:14:01.334Z,9
2023-03-26T01:15:02.129Z,9
2023-03-26T01:16:03.410Z,9
2023-03-26T01:17:01.774Z,9.1
2023-03-26T01:18:01.121Z,9.1
2023-03-26T01:19:01.897Z,9.1
2023-03-26T01:20:01.111Z,9.1
2023-03-26T01:21:06.009Z,9.1
2023-03-26T01:22:01.509Z,9
2023-03-26T01:23:01.527Z,9
2023-03-26T01:24:01.131Z,9
2023-03-26T01:25:01.166Z,9
2023-03-26T01:26:09.158Z,9
2023-03-26T01:27:01.448Z,9
2023-03-26T01:28:01.088Z,9
2023-03-26T01:29:01.252Z,9
2023-03-26T01:30:01.227Z,9
2023-03-26T01:31:11.780Z,9
2023-03-26T01:32:16.440Z,9
2023-03-26T01:33:01.938Z,9
2023-03-26T01:34:01.149Z,9
2023-03-26T01:35:01.278Z,9
2023-03-26T01:36:14.869Z,9
2023-03-26T01:37:01.759Z,9
2023-03-26T01:38:01.314Z,9
2023-03-26T01:39:01.268Z,9
2023-03-26T01:40:01.504Z,9
2023-03-26T01:41:01.235Z,9
2023-03-26T01:42:01.973Z,9
2023-03-26T01:43:05.480Z,9
2023-03-26T01:44:01.028Z,9
2023-03-26T01:45:01.059Z,9
2023-03-26T01:46:01.044Z,9
2023-03-26T01:47:01.312Z,9
2023-03-26T01:48:01.470Z,9
2023-03-26T01:49:02.043Z,9
2023-03-26T01:50:02.274Z,9
2023-03-26T01:51:00.761Z,9
2023-03-26T01:52:00.484Z,9
2023-03-26T01:53:00.340Z,9
2023-03-26T01:54:00.321Z,9
2023-03-26T01:54:59.995Z,9
2023-03-26T01:55:59.666Z,9
2023-03-26T01:57:01.472Z,9
2023-03-26T01:58:01.139Z,9
2023-03-26T01:59:01.043Z,9
2023-03-26T02:00:01.025Z,9
2023-03-26T02:01:01.038Z,9
2023-03-26T02:02:01.263Z,9
2023-03-26T02:03:01.146Z,9
2023-03-26T02:04:02.176Z,9
2023-03-26T02:05:01.999Z,9
2023-03-26T02:06:02.201Z,9
2023-03-26T02:07:01.087Z,9
2023-03-26T02:08:01.075Z,9
2023-03-26T02:09:01.097Z,9
2023-03-26T02:10:01.125Z,9
2023-03-26T02:11:01.126Z,9
2023-03-26T02:12:01.116Z,9
2023-03-26T02:13:01.109Z,9
2023-03-26T02:14:01.507Z,9
2023-03-26T02:15:01.027Z,9
2023-03-26T02:16:01.148Z,8.9
2023-03-26T02:17:01.850Z,8.9
2023-03-26T02:18:01.252Z,8.9
2023-03-26T02:19:01.996Z,8.9
2023-03-26T02:20:01.585Z,8.9
2023-03-26T02:21:00.650Z,9
2023-03-26T02:22:00.350Z,9
2023-03-26T02:23:00.208Z,9
2023-03-26T02:24:00.557Z,8.9
2023-03-26T02:25:00.162Z,8.9
2023-03-26T02:25:59.763Z,8.9
2023-03-26T02:27:01.726Z,8.9
2023-03-26T02:28:01.704Z,8.9
2023-03-26T02:29:01.862Z,8.9
2023-03-26T02:30:02.138Z,8.9
2023-03-26T02:31:01.122Z,8.9
2023-03-26T02:32:01.518Z,8.9
2023-03-26T02:33:01.081Z,8.9
2023-03-26T02:34:00.943Z,8.9
2023-03-26T02:35:01.063Z,8.9
2023-03-26T02:36:01.129Z,8.8
2023-03-26T02:37:01.074Z,8.9
2023-03-26T02:38:01.056Z,8.8
2023-03-26T02:39:01.061Z,8.8
2023-03-26T02:40:01.084Z,8.8
2023-03-26T02:41:01.108Z,8.8
2023-03-26T02:42:00.786Z,8.8
2023-03-26T02:43:00.487Z,8.8
2023-03-26T02:44:00.187Z,8.8
2023-03-26T02:44:59.836Z,8.8
2023-03-26T02:46:01.409Z,8.8
2023-03-26T02:47:01.030Z,8.8
2023-03-26T02:48:01.120Z,8.8
2023-03-26T02:49:01.447Z,8.8
2023-03-26T02:50:01.036Z,8.8
2023-03-26T02:51:01.067Z,8.8
2023-03-26T02:52:01.058Z,8.8
2023-03-26T02:53:01.056Z,8.8
2023-03-26T02:54:01.068Z,8.8
2023-03-26T02:55:01.071Z,8.8
2023-03-26T02:56:01.095Z,8.8
2023-03-26T02:57:00.780Z,8.8
2023-03-26T02:58:00.381Z,8.8
2023-03-26T02:58:59.955Z,8.8
2023-03-26T02:59:59.599Z,8.8
2023-03-26T03:01:01.366Z,8.8
2023-03-26T03:02:04.320Z,8.8
2023-03-26T03:03:01.175Z,8.8
2023-03-26T03:04:01.946Z,8.8
2023-03-26T03:05:01.987Z,8.8
2023-03-26T03:06:01.020Z,8.8
2023-03-26T03:07:06.519Z,8.8
2023-03-26T03:08:01.059Z,8.8
2023-03-26T03:09:01.071Z,8.8
2023-03-26T03:10:01.074Z,8.8
2023-03-26T03:11:01.107Z,8.8
2023-03-26T03:12:09.571Z,8.8
2023-03-26T03:13:01.112Z,8.8
2023-03-26T03:14:01.261Z,8.8
2023-03-26T03:15:01.203Z,8.8
2023-03-26T03:16:01.492Z,8.8
2023-03-26T03:17:12.657Z,8.7
2023-03-26T03:18:01.215Z,8.8
2023-03-26T03:19:01.131Z,8.8
2023-03-26T03:20:01.036Z,8.8
2023-03-26T03:21:01.058Z,8.7
2023-03-26T03:22:15.328Z,8.7
2023-03-26T03:23:01.404Z,8.7
2023-03-26T03:24:02.124Z,8.7
2023-03-26T03:25:01.021Z,8.7
2023-03-26T03:26:01.286Z,8.7
2023-03-26T03:27:01.097Z,8.7
2023-03-26T03:28:01.096Z,8.6
2023-03-26T03:29:01.324Z,8.6
2023-03-26T03:30:01.338Z,8.6
2023-03-26T03:31:01.541Z,8.6
2023-03-26T03:32:01.536Z,8.6
2023-03-26T03:33:01.158Z,8.6
2023-03-26T03:34:01.126Z,8.6
2023-03-26T03:35:01.130Z,8.6
2023-03-26T03:36:01.078Z,8.5
2023-03-26T03:37:01.073Z,8.6
2023-03-26T03:38:01.749Z,8.5
2023-03-26T03:39:01.084Z,8.5
2023-03-26T03:40:01.083Z,8.5
2023-03-26T03:41:01.039Z,8.5
2023-03-26T03:42:02.038Z,8.5
2023-03-26T03:43:01.031Z,8.5
2023-03-26T03:44:01.029Z,8.5
2023-03-26T03:45:01.173Z,8.5
2023-03-26T03:46:01.738Z,8.5
2023-03-26T03:47:01.416Z,8.5
2023-03-26T03:48:04.371Z,8.5
2023-03-26T03:49:01.070Z,8.5
2023-03-26T03:50:01.165Z,8.5
2023-03-26T03:51:01.127Z,8.5
2023-03-26T03:52:01.042Z,8.5
2023-03-26T03:53:01.423Z,8.5
2023-03-26T03:54:01.094Z,8.5
2023-03-26T03:55:01.075Z,8.5
2023-03-26T03:56:01.063Z,8.5
2023-03-26T03:57:01.093Z,8.5
2023-03-26T03:58:01.242Z,8.5
2023-03-26T03:59:01.755Z,8.5
2023-03-26T04:00:01.397Z,8.5
2023-03-26T04:01:02.025Z,8.5
2023-03-26T04:02:01.506Z,8.4
2023-03-26T04:03:02.109Z,8.4
2023-03-26T04:04:01.357Z,8.4
2023-03-26T04:05:01.140Z,8.4
2023-03-26T04:06:01.152Z,8.4
2023-03-26T04:07:01.145Z,8.4
2023-03-26T04:08:01.152Z,8.3
2023-03-26T04:09:01.086Z,8.3
2023-03-26T04:10:04.498Z,8.3
2023-03-26T04:11:01.172Z,8.3
2023-03-26T04:12:00.447Z,8.4
2023-03-26T04:13:00.236Z,8.3
2023-03-26T04:13:59.955Z,8.3
2023-03-26T04:14:59.554Z,8.3
2023-03-26T04:16:02.334Z,8.3
2023-03-26T04:17:01.493Z,8.3
2023-03-26T04:18:01.311Z,8.3
2023-03-26T04:19:02.065Z,8.3
2023-03-26T04:20:02.157Z,8.3
2023-03-26T04:21:01.537Z,8.3
2023-03-26T04:22:01.120Z,8.3
2023-03-26T04:23:01.058Z,8.3
2023-03-26T04:24:01.150Z,8.3
2023-03-26T04:25:01.412Z,8.3
2023-03-26T04:26:02.275Z,8.3
2023-03-26T04:27:01.055Z,8.3
2023-03-26T04:28:01.062Z,8.3
2023-03-26T04:29:01.227Z,8.3
2023-03-26T04:30:01.890Z,8.3
2023-03-26T04:31:02.087Z,8.3
2023-03-26T04:32:01.252Z,8.3
2023-03-26T04:33:02.230Z,8.3
2023-03-26T04:34:02.179Z,8.3
2023-03-26T04:35:02.519Z,8.2
2023-03-26T04:36:01.153Z,8.2
2023-03-26T04:37:01.120Z,8.3
2023-03-26T04:38:04.196Z,8.3
2023-03-26T04:39:01.140Z,8.2
2023-03-26T04:40:01.392Z,8.2
2023-03-26T04:41:02.070Z,8.2
2023-03-26T04:42:01.861Z,8.2
2023-03-26T04:43:07.882Z,8.1
2023-03-26T04:44:02.721Z,8.1
2023-03-26T04:45:01.098Z,8.1
2023-03-26T04:46:01.079Z,8.1
2023-03-26T04:47:01.094Z,8.1
2023-03-26T04:48:09.595Z,8.1
2023-03-26T04:49:00.825Z,8.1
2023-03-26T04:50:01.088Z,8.1
2023-03-26T04:51:01.159Z,8.1
2023-03-26T04:52:01.439Z,8.1
2023-03-26T04:53:11.636Z,8.1
2023-03-26T04:54:01.227Z,8.1
2023-03-26T04:55:02.383Z,8.1
2023-03-26T04:56:01.050Z,8.1
2023-03-26T04:57:01.251Z,8.1
2023-03-26T04:58:14.650Z,8.1
2023-03-26T04:59:02.512Z,8.1
2023-03-26T05:00:01.946Z,8.1
2023-03-26T05:01:10.543Z,8.1
2023-03-26T05:02:00.681Z,8.1
2023-03-26T05:03:15.578Z,8.1
2023-03-26T05:04:01.821Z,8.1
2023-03-26T05:05:01.572Z,8.1
2023-03-26T05:06:01.176Z,8.1
2023-03-26T05:07:02.078Z,8.1
2023-03-26T05:08:17.381Z,8.1
2023-03-26T05:09:01.123Z,8.1
2023-03-26T05:10:00.834Z,8.1
2023-03-26T05:11:01.129Z,8.1
2023-03-26T05:12:01.047Z,8.1
2023-03-26T05:13:01.147Z,8.1
2023-03-26T05:14:01.128Z,8
2023-03-26T05:15:01.676Z,8.1
2023-03-26T05:16:01.486Z,8.1
2023-03-26T05:17:01.190Z,8.1
2023-03-26T05:18:01.164Z,8.1
2023-03-26T05:19:01.060Z,8.1
2023-03-26T05:20:01.094Z,8.1
2023-03-26T05:21:00.881Z,8.1
2023-03-26T05:22:01.119Z,8.1
2023-03-26T05:23:01.120Z,8.2
2023-03-26T05:24:01.631Z,8.2
2023-03-26T05:25:01.257Z,8.2
2023-03-26T05:26:02.263Z,8.2
2023-03-26T05:27:01.198Z,8.2
2023-03-26T05:28:01.859Z,8.1
2023-03-26T05:29:00.939Z,8.2
2023-03-26T05:30:01.075Z,8.2
2023-03-26T05:31:01.209Z,8.2
2023-03-26T05:32:01.047Z,8.2
2023-03-26T05:33:01.198Z,8.3
2023-03-26T05:34:01.899Z,8.2
2023-03-26T05:35:01.458Z,8.3
2023-03-26T05:36:01.238Z,8.3
2023-03-26T05:37:02.211Z,8.2
2023-03-26T05:38:01.042Z,8.2
2023-03-26T05:39:01.022Z,8.3
2023-03-26T05:40:01.858Z,8.3
2023-03-26T05:41:00.791Z,8.3
2023-03-26T05:42:01.115Z,8.3
2023-03-26T05:43:01.470Z,8.3
2023-03-26T05:44:01.945Z,8.3
2023-03-26T05:45:01.139Z,8.3
2023-03-26T05:46:01.239Z,8.3
2023-03-26T05:47:01.072Z,8.3
2023-03-26T05:48:01.121Z,8.3
2023-03-26T05:49:01.098Z,8.3
2023-03-26T05:50:01.201Z,8.3
2023-03-26T05:51:01.314Z,8.3
2023-03-26T05:52:01.336Z,8.3
2023-03-26T05:53:01.462Z,8.3
2023-03-26T05:54:01.034Z,8.3
2023-03-26T05:55:01.093Z,8.4
2023-03-26T05:56:01.119Z,8.4
2023-03-26T05:57:01.194Z,8.4
2023-03-26T05:58:01.132Z,8.4
2023-03-26T05:59:01.034Z,8.4
2023-03-26T06:00:03.768Z,8.4
2023-03-26T06:01:01.645Z,8.4
2023-03-26T06:02:01.683Z,8.4
2023-03-26T06:03:01.336Z,8.5
2023-03-26T06:04:01.225Z,8.4
2023-03-26T06:05:02.201Z,8.5
2023-03-26T06:06:02.614Z,8.5
2023-03-26T06:07:01.438Z,8.5
2023-03-26T06:08:02.096Z,8.5
2023-03-26T06:09:02.816Z,8.5
2023-03-26T06:10:01.245Z,8.5
2023-03-26T06:11:01.094Z,8.5
2023-03-26T06:12:01.116Z,8.5
2023-03-26T06:13:01.111Z,8.5
2023-03-26T06:14:01.505Z,8.5
2023-03-26T06:15:01.148Z,8.5
2023-03-26T06:16:01.346Z,8.5
2023-03-26T06:17:01.046Z,8.5
2023-03-26T06:18:01.089Z,8.5
2023-03-26T06:19:01.916Z,8.5
2023-03-26T06:20:01.180Z,8.5
2023-03-26T06:21:01.430Z,8.6
2023-03-26T06:22:01.243Z,8.6
2023-03-26T06:23:01.283Z,8.6
2023-03-26T06:24:04.138Z,8.7
2023-03-26T06:25:01.172Z,8.8
2023-03-26T06:26:01.264Z,8.8
2023-03-26T06:27:01.107Z,8.8
2023-03-26T06:28:01.115Z,8.8
2023-03-26T06:29:08.325Z,8.8
2023-03-26T06:30:01.823Z,8.8
2023-03-26T06:31:02.051Z,8.8
2023-03-26T06:32:12.457Z,8.8
2023-03-26T06:33:02.220Z,8.7
2023-03-26T06:34:10.921Z,8.7
2023-03-26T06:35:01.932Z,8.7
2023-03-26T06:36:01.133Z,8.7
2023-03-26T06:37:01.055Z,8.7
2023-03-26T06:38:01.065Z,8.7
2023-03-26T06:39:13.462Z,8.7
2023-03-26T06:40:01.090Z,8.7
2023-03-26T06:41:01.108Z,8.7
2023-03-26T06:42:01.091Z,8.6
2023-03-26T06:43:07.991Z,8.6
2023-03-26T06:44:16.526Z,8.7
2023-03-26T06:45:02.138Z,8.7
2023-03-26T06:46:01.125Z,8.7
2023-03-26T06:47:03.777Z,8.7
2023-03-26T06:48:01.089Z,8.7
2023-03-26T06:49:01.032Z,8.7
2023-03-26T06:50:01.115Z,8.7
2023-03-26T06:51:01.042Z,8.7
2023-03-26T06:52:01.065Z,8.8
2023-03-26T06:53:01.416Z,8.8
2023-03-26T06:54:01.135Z,8.8
2023-03-26T06:55:01.027Z,8.8
2023-03-26T06:56:01.029Z,8.8
2023-03-26T06:57:01.103Z,8.8
2023-03-26T06:58:01.118Z,8.8
2023-03-26T06:59:01.802Z,8.8
2023-03-26T07:00:01.371Z,8.8
2023-03-26T07:01:01.414Z,8.8
2023-03-26T07:02:01.012Z,8.8
2023-03-26T07:03:01.207Z,8.9
2023-03-26T07:04:01.198Z,8.9
2023-03-26T07:05:01.088Z,8.9
2023-03-26T07:06:01.040Z,9
2023-03-26T07:07:01.175Z,8.9
2023-03-26T07:08:01.192Z,9
2023-03-26T07:09:01.299Z,9
2023-03-26T07:10:01.453Z,8.9
2023-03-26T07:11:01.458Z,8.9
2023-03-26T07:12:01.196Z,9
2023-03-26T07:13:01.091Z,9
2023-03-26T07:14:01.102Z,9
2023-03-26T07:15:01.705Z,9
2023-03-26T07:16:01.053Z,9
2023-03-26T07:17:01.244Z,9
2023-03-26T07:18:01.503Z,9
2023-03-26T07:19:01.153Z,9
2023-03-26T07:20:01.140Z,9
2023-03-26T07:21:01.418Z,9
2023-03-26T07:22:01.132Z,9.1
2023-03-26T07:23:01.770Z,9.1
2023-03-26T07:24:01.233Z,9.1
2023-03-26T07:25:01.376Z,9.1
2023-03-26T07:26:01.061Z,9.1
2023-03-26T07:27:01.069Z,9.1
2023-03-26T07:28:01.491Z,9.1
2023-03-26T07:29:04.790Z,9.1
2023-03-26T07:30:02.061Z,9.1
2023-03-26T07:31:01.304Z,9.1
2023-03-26T07:32:02.090Z,9.1
2023-03-26T07:33:01.487Z,9.2
2023-03-26T07:34:01.148Z,9.2
2023-03-26T07:35:01.155Z,9.3
2023-03-26T07:36:01.134Z,9.3
2023-03-26T07:37:01.711Z,9.3
2023-03-26T07:38:01.916Z,9.4
2023-03-26T07:39:01.997Z,9.4
2023-03-26T07:40:00.953Z,9.4
2023-03-26T07:41:01.226Z,9.5
2023-03-26T07:42:01.010Z,9.5
2023-03-26T07:43:01.478Z,9.5
2023-03-26T07:44:01.184Z,9.5
2023-03-26T07:45:01.368Z,9.5
2023-03-26T07:46:01.391Z,9.5
2023-03-26T07:47:01.090Z,9.5
2023-03-26T07:48:01.190Z,9.5
2023-03-26T07:49:01.126Z,9.5
2023-03-26T07:50:01.348Z,9.5
2023-03-26T07:51:01.519Z,9.5
2023-03-26T07:52:01.508Z,9.5
2023-03-26T07:53:01.277Z,9.5
2023-03-26T07:54:01.385Z,9.5
2023-03-26T07:55:01.338Z,9.5
2023-03-26T07:56:01.113Z,9.6
2023-03-26T07:57:02.132Z,9.6
2023-03-26T07:58:01.760Z,9.6
2023-03-26T07:59:02.125Z,9.6
2023-03-26T08:00:02.224Z,9.6
2023-03-26T08:01:01.509Z,9.6
2023-03-26T08:02:01.191Z,9.6
2023-03-26T08:03:01.267Z,9.6
2023-03-26T08:04:23.904Z,9.6
2023-03-26T08:05:05.486Z,9.6
2023-03-26T08:06:01.276Z,9.6
2023-03-26T08:07:01.289Z,9.6
2023-03-26T08:08:01.456Z,9.6
2023-03-26T08:09:01.622Z,9.6
2023-03-26T08:10:08.328Z,9.7
2023-03-26T08:11:01.876Z,9.7
2023-03-26T08:12:01.105Z,9.7
2023-03-26T08:13:01.034Z,9.8
2023-03-26T08:14:01.082Z,9.8
2023-03-26T08:15:11.183Z,9.8
2023-03-26T08:16:01.585Z,9.8
2023-03-26T08:17:01.500Z,9.8
2023-03-26T08:18:01.125Z,9.9
2023-03-26T08:19:01.103Z,9.9
2023-03-26T08:20:15.206Z,9.9
2023-03-26T08:21:01.113Z,9.9
2023-03-26T08:22:00.793Z,9.9
2023-03-26T08:23:00.456Z,9.9
2023-03-26T08:24:00.008Z,9.9
2023-03-26T08:24:59.683Z,9.9
2023-03-26T08:26:01.855Z,9.9
2023-03-26T08:27:01.178Z,10
2023-03-26T08:28:01.045Z,9.9
2023-03-26T08:29:01.170Z,10
2023-03-26T08:30:01.190Z,10
2023-03-26T08:31:01.388Z,9.9
2023-03-26T08:32:01.351Z,9.9
2023-03-26T08:33:01.422Z,9.9
2023-03-26T08:34:01.508Z,9.9
2023-03-26T08:35:01.215Z,9.9
2023-03-26T08:36:01.693Z,10
2023-03-26T08:37:02.643Z,10
2023-03-26T08:38:01.512Z,10.1
2023-03-26T08:39:01.167Z,10.1
2023-03-26T08:40:01.152Z,10.1
2023-03-26T08:41:01.187Z,10.1
2023-03-26T08:42:01.051Z,10.1
2023-03-26T08:43:01.042Z,10.1
2023-03-26T08:44:01.055Z,10.1
2023-03-26T08:45:01.060Z,10.1
2023-03-26T08:46:00.414Z,10
2023-03-26T08:47:00.194Z,10.1
2023-03-26T08:47:59.882Z,10
2023-03-26T08:48:59.544Z,10.1
2023-03-26T08:50:01.114Z,10.1
2023-03-26T08:51:01.019Z,10
2023-03-26T08:52:01.679Z,10
2023-03-26T08:53:01.440Z,10
2023-03-26T08:54:01.238Z,10
2023-03-26T08:55:01.260Z,10
2023-03-26T08:56:01.943Z,10
2023-03-26T08:57:01.159Z,10
2023-03-26T08:58:01.128Z,10
2023-03-26T08:59:01.044Z,10
2023-03-26T09:00:02.773Z,10.1
2023-03-26T09:01:01.232Z,10.1
2023-03-26T09:02:01.806Z,10.1
2023-03-26T09:03:01.459Z,10.1
2023-03-26T09:04:02.726Z,10.1
2023-03-26T09:05:01.447Z,10.1
2023-03-26T09:06:02.251Z,10.1
2023-03-26T09:07:01.116Z,10.1
2023-03-26T09:08:01.565Z,10
2023-03-26T09:09:02.034Z,10
2023-03-26T09:10:01.206Z,10
2023-03-26T09:11:01.494Z,10
2023-03-26T09:12:01.235Z,10
2023-03-26T09:13:01.126Z,10
2023-03-26T09:14:01.043Z,10
2023-03-26T09:15:01.313Z,10
2023-03-26T09:16:01.056Z,10.1
2023-03-26T09:17:01.053Z,10.2
2023-03-26T09:18:01.188Z,10.2
2023-03-26T09:19:01.725Z,10.3
2023-03-26T09:20:01.161Z,10.3
2023-03-26T09:21:01.461Z,10.3
2023-03-26T09:22:01.186Z,10.3
2023-03-26T09:23:01.086Z,10.3
2023-03-26T09:24:01.157Z,10.3
2023-03-26T09:25:01.723Z,10.3
2023-03-26T09:26:01.152Z,10.3
2023-03-26T09:27:01.144Z,10.3
2023-03-26T09:28:01.129Z,10.4
2023-03-26T09:29:01.128Z,10.4
2023-03-26T09:30:01.349Z,10.4
2023-03-26T09:31:01.473Z,10.4
2023-03-26T09:32:01.360Z,10.5
2023-03-26T09:33:01.111Z,10.5
2023-03-26T09:34:01.074Z,10.5
2023-03-26T09:35:01.081Z,10.6
2023-03-26T09:36:01.905Z,10.6
2023-03-26T09:37:00.827Z,10.6
2023-03-26T09:38:00.468Z,10.7
2023-03-26T09:39:00.385Z,10.7
2023-03-26T09:40:00.396Z,10.7
2023-03-26T09:41:00.100Z,10.8
2023-03-26T09:41:59.763Z,10.8
2023-03-26T09:43:01.383Z,10.8
2023-03-26T09:44:02.042Z,10.7
2023-03-26T09:45:02.009Z,10.7
2023-03-26T09:46:00.260Z,10.7
2023-03-26T09:47:00.132Z,10.6
2023-03-26T09:47:59.762Z,10.6
2023-03-26T09:49:01.503Z,10.6
2023-03-26T09:50:01.169Z,10.6
2023-03-26T09:51:02.826Z,10.6
2023-03-26T09:52:01.466Z,10.6
2023-03-26T09:53:01.081Z,10.6
2023-03-26T09:54:01.101Z,10.6
2023-03-26T09:55:01.097Z,10.6
2023-03-26T09:56:05.483Z,10.7
2023-03-26T09:57:01.208Z,10.7
2023-03-26T09:58:01.201Z,10.8
2023-03-26T09:59:01.523Z,10.8
2023-03-26T10:00:01.586Z,10.8
2023-03-26T10:01:07.720Z,10.8
2023-03-26T10:02:01.237Z,10.8
2023-03-26T10:03:01.690Z,10.8
2023-03-26T10:04:01.843Z,10.8
2023-03-26T10:05:01.771Z,10.8
2023-03-26T10:06:08.857Z,10.8
2023-03-26T10:07:01.786Z,10.8
2023-03-26T10:08:01.471Z,10.8
2023-03-26T10:09:01.116Z,10.8
2023-03-26T10:10:01.085Z,10.8
2023-03-26T10:11:13.692Z,10.8
2023-03-26T10:12:01.490Z,10.8
2023-03-26T10:13:11.972Z,10.8
2023-03-26T10:14:01.867Z,10.8
2023-03-26T10:15:01.337Z,10.8
2023-03-26T10:16:16.440Z,10.8
2023-03-26T10:17:01.054Z,10.8
2023-03-26T10:18:01.252Z,10.9
2023-03-26T10:19:01.056Z,10.9
2023-03-26T10:20:01.078Z,10.9
2023-03-26T10:21:01.164Z,11
2023-03-26T10:22:01.038Z,11
2023-03-26T10:23:00.957Z,11
2023-03-26T10:24:01.478Z,11.1
2023-03-26T10:25:01.213Z,11.1
2023-03-26T10:26:01.095Z,11.1
2023-03-26T10:27:09.912Z,11.1
2023-03-26T10:28:01.108Z,11.2
2023-03-26T10:29:01.116Z,11.2
2023-03-26T10:30:01.119Z,11.2
2023-03-26T10:31:01.221Z,11.3
2023-03-26T10:32:01.246Z,11.2
2023-03-26T10:33:01.215Z,11.3
2023-03-26T10:34:02.233Z,11.2
2023-03-26T10:35:02.229Z,11.1
2023-03-26T10:36:02.660Z,11.1
2023-03-26T10:37:01.083Z,11.1
2023-03-26T10:38:01.509Z,11.1
2023-03-26T10:39:01.098Z,11.1
2023-03-26T10:40:01.467Z,11.1
2023-03-26T10:41:01.191Z,11.1
2023-03-26T10:42:01.183Z,11.1
2023-03-26T10:43:00.885Z,11.1
2023-03-26T10:44:08.051Z,11.1
2023-03-26T10:45:01.102Z,11.1
2023-03-26T10:46:01.551Z,11.1
2023-03-26T10:47:01.153Z,11.2
2023-03-26T10:48:01.401Z,11.2
2023-03-26T10:49:01.622Z,11.2
2023-03-26T10:50:01.035Z,11.2
2023-03-26T10:51:01.834Z,11.3
2023-03-26T10:52:01.199Z,11.3
2023-03-26T10:53:02.012Z,11.3
2023-03-26T10:54:01.758Z,11.3
2023-03-26T10:55:01.082Z,11.4
2023-03-26T10:56:01.086Z,11.3
2023-03-26T10:57:01.526Z,11.4
2023-03-26T10:58:01.147Z,11.4
2023-03-26T10:59:01.087Z,11.4
2023-03-26T11:00:01.091Z,11.4
2023-03-26T11:01:01.561Z,11.5
2023-03-26T11:02:01.312Z,11.5
2023-03-26T11:03:01.330Z,11.6
2023-03-26T11:04:02.417Z,11.6
2023-03-26T11:05:02.536Z,11.6
2023-03-26T11:06:01.188Z,11.6
2023-03-26T11:07:01.578Z,11.6
2023-03-26T11:08:01.865Z,11.6
2023-03-26T11:09:01.080Z,11.6
2023-03-26T11:10:01.065Z,11.6
2023-03-26T11:11:01.107Z,11.6
2023-03-26T11:12:01.492Z,11.6
2023-03-26T11:13:01.334Z,11.6
2023-03-26T11:14:01.164Z,11.6
2023-03-26T11:15:01.220Z,11.6
2023-03-26T11:16:01.094Z,11.7
2023-03-26T11:17:01.039Z,11.7
2023-03-26T11:18:01.457Z,11.8
2023-03-26T11:19:01.630Z,11.8
2023-03-26T11:20:02.105Z,11.7
2023-03-26T11:21:19.249Z,11.7
2023-03-26T11:22:01.163Z,11.7
2023-03-26T11:23:01.180Z,11.6
2023-03-26T11:24:05.680Z,11.6
2023-03-26T11:25:03.314Z,11.6
2023-03-26T11:26:01.356Z,11.6
2023-03-26T11:27:15.772Z,11.6
2023-03-26T11:28:01.934Z,11.5
2023-03-26T11:29:04.243Z,11.5
2023-03-26T11:30:01.545Z,11.5
2023-03-26T11:31:01.556Z,11.5
2023-03-26T11:32:08.160Z,11.6
2023-03-26T11:33:00.654Z,11.6
2023-03-26T11:34:00.189Z,11.6
2023-03-26T11:34:59.800Z,11.7
2023-03-26T11:35:59.753Z,11.7
2023-03-26T11:37:10.924Z,11.8
2023-03-26T11:38:01.527Z,11.8
2023-03-26T11:39:01.233Z,11.9
2023-03-26T11:40:02.609Z,12
2023-03-26T11:41:01.080Z,12
2023-03-26T11:42:11.248Z,12.1
2023-03-26T11:43:01.434Z,12.1
2023-03-26T11:44:00.976Z,12.1
2023-03-26T11:45:00.727Z,12.2
2023-03-26T11:46:00.533Z,12.2
2023-03-26T11:47:13.787Z,12.2
2023-03-26T11:48:01.168Z,12.1
2023-03-26T11:49:01.503Z,12.1
2023-03-26T11:50:02.555Z,12.1
2023-03-26T11:51:01.480Z,12.1
2023-03-26T11:52:17.014Z,12.1
2023-03-26T11:53:01.127Z,12.1
2023-03-26T11:54:01.137Z,12.2
2023-03-26T11:55:01.123Z,12.3
2023-03-26T11:56:02.290Z,12.3
2023-03-26T11:57:06.481Z,12.3
2023-03-26T11:58:01.343Z,12.3
2023-03-26T11:59:03.997Z,12.4
2023-03-26T12:00:04.018Z,12.4
2023-03-26T12:01:01.180Z,12.5
2023-03-26T12:02:00.864Z,12.5
2023-03-26T12:03:01.102Z,12.6
2023-03-26T12:04:01.181Z,12.7
2023-03-26T12:05:01.153Z,12.8
2023-03-26T12:06:01.347Z,12.8
2023-03-26T12:07:01.266Z,12.9
2023-03-26T12:08:04.055Z,12.8
2023-03-26T12:09:02.158Z,12.9
2023-03-26T12:10:18.154Z,13
2023-03-26T12:11:01.171Z,13
2023-03-26T12:12:01.038Z,13
2023-03-26T12:13:01.568Z,13
2023-03-26T12:14:01.630Z,13
2023-03-26T12:15:01.176Z,13
2023-03-26T12:16:01.903Z,13.1
2023-03-26T12:17:01.287Z,13
2023-03-26T12:18:01.216Z,13
2023-03-26T12:19:02.813Z,13
2023-03-26T12:20:02.118Z,13
2023-03-26T12:21:01.589Z,13
2023-03-26T12:22:01.296Z,12.9
2023-03-26T12:23:01.321Z,12.8
2023-03-26T12:24:01.936Z,12.8
2023-03-26T12:25:01.701Z,12.8
2023-03-26T12:26:01.145Z,12.7
2023-03-26T12:27:01.037Z,12.7
2023-03-26T12:28:01.170Z,12.6
2023-03-26T12:29:01.407Z,12.6
2023-03-26T12:30:02.266Z,12.6
2023-03-26T12:31:01.129Z,12.7
2023-03-26T12:32:01.795Z,12.7
2023-03-26T12:33:01.793Z,12.7
2023-03-26T12:34:02.609Z,12.8
2023-03-26T12:35:01.917Z,12.8
2023-03-26T12:36:01.315Z,12.8
2023-03-26T12:37:01.566Z,12.8
2023-03-26T12:38:01.439Z,12.8
2023-03-26T12:39:16.157Z,12.8
2023-03-26T12:40:09.767Z,12.7
2023-03-26T12:41:01.129Z,12.7
2023-03-26T12:43:53.486Z,12.6
2023-03-26T12:44:48.986Z,12.5
2023-03-26T12:44:49.732Z,12.5
2023-03-26T12:45:01.750Z,12.5
2023-03-26T12:46:58.913Z,12.4
2023-03-26T12:47:57.689Z,12.4
2023-03-26T12:48:04.319Z,12.3
2023-03-26T12:49:01.845Z,12.3
2023-03-26T12:50:01.816Z,12.4
2023-03-26T12:51:01.090Z,12.4
2023-03-26T12:52:01.484Z,12.4
2023-03-26T12:53:01.165Z,12.5
2023-03-26T12:54:01.441Z,12.5
2023-03-26T12:55:01.393Z,12.5
2023-03-26T12:56:02.183Z,12.5
2023-03-26T12:57:11.911Z,12.6
2023-03-26T12:58:01.074Z,12.6
2023-03-26T12:59:01.457Z,12.7
2023-03-26T13:00:01.286Z,12.8
2023-03-26T13:01:01.092Z,12.8
2023-03-26T13:02:01.256Z,12.9
2023-03-26T13:03:04.430Z,12.9
2023-03-26T13:04:02.005Z,12.9
2023-03-26T13:05:06.491Z,13
2023-03-26T13:06:01.444Z,13
2023-03-26T13:07:02.647Z,13
2023-03-26T13:08:06.854Z,13
2023-03-26T13:09:01.973Z,13
2023-03-26T13:10:01.266Z,13
2023-03-26T13:11:01.159Z,13
2023-03-26T13:12:01.128Z,13.1
2023-03-26T13:13:09.801Z,13.1
2023-03-26T13:14:04.638Z,13.1
2023-03-26T13:15:01.439Z,13.1
2023-03-26T13:16:01.120Z,13.2
2023-03-26T13:17:01.470Z,13.3
2023-03-26T13:18:12.590Z,13.3
2023-03-26T13:19:01.059Z,13.4
2023-03-26T13:20:01.137Z,13.4
2023-03-26T13:21:01.089Z,13.5
2023-03-26T13:22:01.091Z,13.5
2023-03-26T13:23:14.105Z,13.5
2023-03-26T13:24:01.094Z,13.5
2023-03-26T13:25:01.416Z,13.6
2023-03-26T13:26:01.437Z,13.6
2023-03-26T13:27:01.432Z,13.6
2023-03-26T13:28:17.077Z,13.6
2023-03-26T13:29:03.017Z,13.6
2023-03-26T13:30:03.069Z,13.6
2023-03-26T13:31:01.848Z,13.6
2023-03-26T13:32:01.209Z,13.6
2023-03-26T13:33:01.173Z,13.6
2023-03-26T13:34:00.938Z,13.5
2023-03-26T13:35:00.654Z,13.5
2023-03-26T13:36:14.282Z,13.5
2023-03-26T13:37:01.219Z,13.4
2023-03-26T13:38:01.107Z,13.4
2023-03-26T13:39:01.096Z,13.3
2023-03-26T13:40:01.113Z,13.3
2023-03-26T13:41:01.101Z,13.3
2023-03-26T13:42:01.132Z,13.2
2023-03-26T13:43:01.133Z,13.2
2023-03-26T13:44:01.129Z,13.2
2023-03-26T13:45:04.368Z,13.2